Tiempo atmosférico en la estación meteorológica de Madrigal De La Vera, Cáceres (464 m.)



Fecha
DESCASC
Temp. máxima en grados centígrados (hora)
DESCASC
Temp. mínima en grados centígrados (hora)
DESCASC
Temp. media en grados centígrados
DESCASC
Racha de viento máxima en m/sg (hora)
DESCASC
Velocidad máxima media en intervalos de 10 minutos(hora)
DESCASC
Precipitaciones diarias en mm
DESCASC
Precipitaciones de 00:00 a 06:00 en mm
DESCASC
Precipitaciones de 06:00 a 12:00 en mm
DESCASC
Precipitaciones de 12:00 a 18:00 en mm
DESCASC
Precipitaciones de 18:00 a 24:00 en mm
DESCASC
16-04-2019 21.9 (17:10) 7.8 (07:20) 14.8 5.28 (17:40) 1.94 (14:50) 0 0 0 0 0
15-04-2019 22.4 (16:40) 10.5 (23:50) 16.4 11.11 (18:30) 4.72 (18:20) 0 0 0 0 0
14-04-2019 23.5 (17:40) 9.5 (00:00) 16.5 5.56 (19:20) 2.5 (19:30) 0 0 0 0 0
13-04-2019 22.6 (17:10) 8.2 (00:00) 15.4 5.56 (00:10) 2.78 (00:10) 0 0 0 0 0
12-04-2019 20.2 (17:50) 6.2 (00:00) 13.2 7.78 (01:00) 3.33 (00:10) 0 0 0 0 0
11-04-2019 18.8 (15:20) 5 (00:00) 11.9 7.22 (00:20) 3.33 (00:20) 0 0 0 0 0
10-04-2019 15.3 (17:50) 6.6 (00:00) 11 14.17 (18:30) 6.39 (18:30) 1 0 0 0 1
09-04-2019 16.8 (16:50) 5.1 (00:00) 10.9 9.72 (17:30) 4.44 (17:20) 8.8 0 8.6 0.2 0
08-04-2019 17.3 (17:40) 7.8 (00:00) 12.5 10 (19:10) 4.44 (17:10) 18.8 12.2 6.6 0 0
07-04-2019 12.9 (14:00) 3 (00:00) 7.9 6.39 (14:40) 2.5 (14:40) 5 0 0 0 5
06-04-2019 12.1 (17:10) 2.3 (00:00) 7.2 14.17 (17:20) 5.83 (17:20) 4.4 0 2.6 0 1.8
05-04-2019 12.4 (17:00) 3.9 (00:00) 8.1 10.83 (15:10) 5.28 (15:10) 22.6 8.2 10.8 0.2 3.4
04-04-2019 16.5 (17:10) 2.6 (00:00) 9.5 13.33 (00:50) 5.83 (00:20) 0.4 0 0 0 0.4
03-04-2019 18.5 (15:20) 6.1 (00:00) 12.3 13.89 (23:40) 6.39 (23:40) 0 0 0 0 0
02-04-2019 19.5 (18:00) 7.7 (00:00) 13.6 4.17 (14:00) 1.67 (13:50) 2.4 0 0 0.6 1.8
01-04-2019 17.4 (16:10) 8.4 (00:00) 12.9 4.72 (17:30) 1.94 (17:30) 0 0 0 0 0
31-03-2019 20 (14:30) 8.1 (00:00) 14.1 7.78 (11:20) 3.33 (11:30) 0 0 0 0 0
30-03-2019 20.5 (14:40) 6.8 (00:00) 13.7 6.39 (10:20) 2.5 (10:30) 0 0 0 0 0
29-03-2019 20 (15:40) 6.6 (00:00) 13.3 10.28 (11:00) 4.17 (10:40) 0 0 0 0 0
28-03-2019 21.2 (16:30) 6 (00:00) 13.6 6.67 (14:10) 2.5 (02:30) 0 0 0 0 0
27-03-2019 19.7 (15:10) 6.8 (00:00) 13.3 10.28 (02:50) 4.72 (02:50) 0 0 0 0 0
26-03-2019 22.3 (15:40) 5.9 (00:00) 14.1 9.72 (18:00) 4.17 (22:50) 0 0 0 0 0
25-03-2019 23.7 (16:20) 9.1 (00:00) 16.4 6.39 (20:00) 2.5 (20:00) 0 0 0 0 0
24-03-2019 22.4 (15:20) 10.4 (00:00) 16.4 10.83 (13:30) 4.72 (13:30) 0 0 0 0 0
23-03-2019 21.7 (15:10) 7.7 (00:00) 14.7 10 (13:50) 3.89 (15:30) 0 0 0 0 0
22-03-2019 19 (16:00) 3.5 (00:00) 11.3 5.28 (15:40) 2.5 (03:00) 0 0 0 0 0
21-03-2019 17.9 (15:50) 4.1 (00:00) 11 5.28 (13:30) 2.5 (13:30) 0 0 0 0 0
20-03-2019 17.6 (16:30) 3.7 (00:00) 10.7 6.67 (00:10) 3.33 (01:10) 0 0 0 0 0
19-03-2019 19.2 (15:10) 5.3 (00:00) 12.3 11.11 (21:10) 5 (21:00) 0 0 0 0 0

Gráficas

Temp. máximas Temp. mínimas Temp. medias Precipitaciones Rachas de viento máximas Velocidades máximas media en intervalos de 10 minutos

Datos horarios

Fecha y hora oficial Temperatura (ºC) Velocidad del viento (km/h) Dirección del viento Racha (km/h) Dirección de racha Precipitación (mm) Presión (hPa) Tendencia (hPa) Humedad (%)
2019-04-17 23:00:00 11.2 0 Calma 4 Este 0.2 -- -- 89
2019-04-17 22:00:00 11.9 2 Sudeste 24 Sudoeste 0.4 -- -- 86
2019-04-17 21:00:00 13.9 10 Sudoeste 26 Sudoeste 0 -- -- 74
2019-04-17 20:00:00 15.9 3 Sudeste 9 Sudoeste 0 -- -- 69
2019-04-17 19:00:00 16.7 2 Norte 13 Sudoeste 0 -- -- 69
2019-04-17 18:00:00 18 3 Oeste 12 Sudoeste 0 -- -- 63
2019-04-17 17:00:00 19.4 2 Nordeste 8 Nordeste 0 -- -- 48
2019-04-17 16:00:00 19.7 2 Nordeste 11 Este 0 -- -- 50
2019-04-17 15:00:00 19.2 4 Este 13 Este 0 -- -- 55
2019-04-17 14:00:00 18.2 3 Este 14 Este 0 -- -- 60
2019-04-17 13:00:00 18.1 4 Este 16 Este 0 -- -- 59
2019-04-17 12:00:00 17.9 5 Este 14 Este 0 -- -- 61
2019-04-17 11:00:00 15.7 2 Sudeste 8 Sur 0 -- -- 68
2019-04-17 10:00:00 14.2 3 Sur 9 Sur 0 -- -- 68
2019-04-17 09:00:00 12.8 3 Sudoeste 7 Sudeste 0 -- -- 75
2019-04-17 08:00:00 11.3 3 Sudoeste 10 Sur 0 -- -- 74
2019-04-17 07:00:00 12 3 Sur 10 Sudoeste 0 -- -- 66
2019-04-17 06:00:00 12.5 5 Sudoeste 11 Sudoeste 0 -- -- 61
2019-04-17 05:00:00 13.6 0 Calma 6 Sudeste 0 -- -- 56
2019-04-17 04:00:00 12.4 0 Calma 6 Noroeste 0 -- -- 59
2019-04-17 03:00:00 14 3 Norte 8 Oeste 0 -- -- 51
2019-04-17 02:00:00 13 4 Noroeste 14 Sudoeste 0 -- -- 58
2019-04-17 01:00:00 15.3 5 Sudoeste 13 Sudoeste 0 -- -- 51
2019-04-17 00:00:00 17.1 6 Norte 12 Norte 0 -- -- 43
2019-04-16 23:00:00 16.8 5 Noroeste 13 Norte 0 -- -- 44
2019-04-16 22:00:00 16.9 4 Norte 9 Noroeste 0 -- -- 43
2019-04-16 21:00:00 17.6 4 Norte 8 Noroeste 0 -- -- 43
2019-04-16 20:00:00 19.4 2 Norte 10 Nordeste 0 -- -- 41
2019-04-16 19:00:00 20.8 3 Nordeste 17 Este 0 -- -- 38
2019-04-16 18:00:00 21.7 3 Este 19 Este 0 -- -- 39
2019-04-16 17:00:00 21.6 5 Este 18 Este 0 -- -- 35
2019-04-16 16:00:00 20.5 3 Nordeste 15 Este 0 -- -- 41
2019-04-16 15:00:00 19.5 5 Nordeste 17 Este 0 -- -- 49
2019-04-16 14:00:00 19.7 4 Sudeste 13 Sudeste 0 -- -- 51
2019-04-16 13:00:00 19 5 Este 15 Este 0 -- -- 56
2019-04-16 12:00:00 18 6 Este 15 Este 0 -- -- 60
2019-04-16 11:00:00 15.5 3 Sudeste 12 Sur 0 -- -- 65
2019-04-16 10:00:00 14.3 3 Este 8 Este 0 -- -- 72
2019-04-16 09:00:00 11.4 3 Norte 5 Noroeste 0 -- -- 76
2019-04-16 08:00:00 8 2 Norte 6 Norte 0 -- -- 88
2019-04-16 07:00:00 8.3 3 Norte 9 Norte 0 -- -- 86
2019-04-16 06:00:00 8.3 2 Norte 5 Noroeste 0 -- -- 88
2019-04-16 05:00:00 9 3 Noroeste 8 Norte 0 -- -- 85
2019-04-16 04:00:00 8.9 0 Calma 5 Norte 0 -- -- 86
2019-04-16 03:00:00 9.2 2 Noroeste 6 Este 0 -- -- 90
2019-04-16 02:00:00 9.6 2 Este 9 Este 0 -- -- 87
2019-04-16 01:00:00 10.6 2 Norte 12 Este 0 -- -- 83
2019-04-16 00:00:00 10.6 3 Noroeste 6 Noroeste 0 -- -- 79
2019-04-15 23:00:00 11.3 0 Calma 15 Norte 0 -- -- 79
2019-04-15 22:00:00 12 3 Oeste 9 Noroeste 0 -- -- 80
2019-04-15 21:00:00 12.8 3 Norte 12 Sudoeste 0 -- -- 81
2019-04-15 20:00:00 14.1 3 Oeste 21 Sudoeste 0 -- -- 73
2019-04-15 19:00:00 16.5 4 Sudoeste 40 Sudoeste 0 -- -- 64
2019-04-15 18:00:00 19.7 12 Sudoeste 31 Sudoeste 0 -- -- 50
2019-04-15 17:00:00 21.1 8 Oeste 27 Sudoeste 0 -- -- 39
2019-04-15 16:00:00 22.1 10 Sudoeste 26 Sur 0 -- -- 45
2019-04-15 15:00:00 21.3 9 Sudoeste 22 Sudoeste 0 -- -- 50
2019-04-15 14:00:00 21.8 9 Sudoeste 23 Sur 0 -- -- 59
2019-04-15 13:00:00 21.4 4 Sur 11 Sur 0 -- -- 61
2019-04-15 12:00:00 18.9 0 Calma 6 Este 0 -- -- 72
2019-04-15 11:00:00 16.4 0 Calma 10 Sur 0 -- -- 75
2019-04-15 10:00:00 15.9 6 Sudoeste 13 Sudoeste 0 -- -- 79
2019-04-15 09:00:00 16.1 2 Sudoeste 6 Oeste 0 -- -- 81
2019-04-15 08:00:00 15.4 3 Noroeste 7 Noroeste 0 -- -- 76
2019-04-15 07:00:00 15.5 3 Norte 5 Norte 0 -- -- 76
2019-04-15 06:00:00 15.3 3 Norte 10 Norte 0 -- -- 76
2019-04-15 05:00:00 14.5 0 Calma 4 Noroeste 0 -- -- 81
2019-04-15 04:00:00 15.3 0 Calma 10 Norte 0 -- -- 75
2019-04-15 03:00:00 15.6 3 Noroeste 6 Norte 0 -- -- 72
2019-04-15 02:00:00 15.3 2 Noroeste 8 Norte 0 -- -- 74
2019-04-15 01:00:00 15.5 0 Calma 8 Norte 0 -- -- 74
2019-04-15 00:00:00 17.2 4 Noroeste 6 Noroeste 0 -- -- 67
2019-04-14 23:00:00 17 2 Norte 5 Norte 0 -- -- 69
2019-04-14 22:00:00 17.6 3 Noroeste 10 Norte 0 -- -- 66
2019-04-14 21:00:00 18.4 0 Calma 7 Sudoeste 0 -- -- 62
2019-04-14 20:00:00 20.6 4 Sudoeste 20 Oeste 0 -- -- 56
2019-04-14 19:00:00 22.1 5 Sudoeste 15 Sur 0 -- -- 52
2019-04-14 18:00:00 22.5 6 Sudoeste 17 Sur 0 -- -- 55
2019-04-14 17:00:00 22.8 5 Sur 18 Sudoeste 0 -- -- 57
2019-04-14 16:00:00 22 5 Sur 15 Sur 0 -- -- 59
2019-04-14 15:00:00 21.1 4 Este 13 Este 0 -- -- 59
2019-04-14 14:00:00 19.6 3 Este 18 Este 0 -- -- 63
2019-04-14 13:00:00 19.1 3 Sudeste 17 Este 0 -- -- 65
2019-04-14 12:00:00 17.1 3 Este 10 Sur 0 -- -- 70
2019-04-14 11:00:00 14.5 2 Sur 7 Este 0 -- -- 77
2019-04-14 10:00:00 13.8 2 Este 6 Este 0 -- -- 81
2019-04-14 09:00:00 11.8 3 Norte 8 Norte 0 -- -- 84
2019-04-14 08:00:00 10.4 3 Norte 9 Norte 0 -- -- 89
2019-04-14 07:00:00 10 2 Norte 4 Norte 0 -- -- 88
2019-04-14 06:00:00 10.4 2 Norte 6 Norte 0 -- -- 77
2019-04-14 05:00:00 10.8 2 Norte 5 Nordeste 0 -- -- 74
2019-04-14 04:00:00 10.5 0 Calma 5 Norte 0 -- -- 73
2019-04-14 03:00:00 11.6 3 Norte 5 Norte 0 -- -- 67
2019-04-14 02:00:00 12.2 2 Norte 5 Norte 0 -- -- 64
2019-04-14 01:00:00 12.8 0 Calma 5 Norte 0 -- -- 61
2019-04-14 00:00:00 13.6 2 Norte 9 Sudoeste 0 -- -- 56
2019-04-13 23:00:00 15.2 3 Noroeste 8 Noroeste 0 -- -- 47
2019-04-13 22:00:00 15.4 4 Noroeste 8 Norte 0 -- -- 46
2019-04-13 21:00:00 16.7 2 Norte 9 Sudoeste 0 -- -- 45
2019-04-13 20:00:00 19.7 5 Sudoeste 19 Sudoeste 0 -- -- 36
2019-04-13 19:00:00 22 5 Sur 17 Sudoeste 0 -- -- 34
2019-04-13 18:00:00 22.5 5 Sudoeste 17 Sur 0 -- -- 35
2019-04-13 17:00:00 22.5 3 Sudeste 17 Sudoeste 0 -- -- 32
2019-04-13 16:00:00 21.6 7 Sur 17 Sur 0 -- -- 29
2019-04-13 15:00:00 20.7 4 Sur 14 Sur 0 -- -- 34
2019-04-13 14:00:00 19.6 6 Sur 14 Sur 0 -- -- 36
2019-04-13 13:00:00 18.8 4 Este 9 Este 0 -- -- 44
2019-04-13 12:00:00 16.6 3 Sudeste 9 Este 0 -- -- 45
2019-04-13 11:00:00 15.2 3 Sur 8 Nordeste 0 -- -- 48
2019-04-13 10:00:00 13.7 2 Sudeste 5 Este 0 -- -- 56
2019-04-13 09:00:00 10 0 Calma 6 Norte 0 -- -- 66
2019-04-13 08:00:00 9.4 0 Calma 7 Norte 0 -- -- 56
2019-04-13 07:00:00 10.8 3 Noroeste 7 Noroeste 0 -- -- 46
2019-04-13 06:00:00 10.7 4 Noroeste 7 Norte 0 -- -- 47
2019-04-13 05:00:00 10.1 4 Noroeste 9 Norte 0 -- -- 47
2019-04-13 04:00:00 8.9 3 Oeste 6 Sudoeste 0 -- -- 55
2019-04-13 03:00:00 9.2 2 Noroeste 9 Sudoeste 0 -- -- 58
2019-04-13 02:00:00 10.5 0 Calma 9 Sudoeste 0 -- -- 54
2019-04-13 01:00:00 12.9 3 Noroeste 20 Norte 0 -- -- 48
2019-04-13 00:00:00 14.4 9 Norte 21 Norte 0 -- -- 39
2019-04-12 23:00:00 13.1 6 Norte 15 Norte 0 -- -- 42
2019-04-12 22:00:00 13.6 4 Norte 15 Nordeste 0 -- -- 43
2019-04-12 21:00:00 14.2 3 Oeste 7 Sudoeste 0 -- -- 45
2019-04-12 20:00:00 16.7 3 Sudoeste 20 Sur 0 -- -- 41
2019-04-12 19:00:00 19.7 7 Sur 22 Sudoeste 0 -- -- 37
2019-04-12 18:00:00 20.2 6 Sur 21 Sudoeste 0 -- -- 37
2019-04-12 17:00:00 19.7 8 Sur 24 Sur 0 -- -- 40
2019-04-12 16:00:00 19.4 8 Sur 23 Sudoeste 0 -- -- 41
2019-04-12 15:00:00 18.9 7 Sur 20 Sur 0 -- -- 41
2019-04-12 14:00:00 17.4 8 Sudoeste 19 Sur 0 -- -- 39
2019-04-12 13:00:00 16.3 3 Sur 14 Sudoeste 0 -- -- 46
2019-04-12 12:00:00 14.9 6 Sur 12 Sudoeste 0 -- -- 47
2019-04-12 11:00:00 14.3 3 Sudeste 9 Este 0 -- -- 46
2019-04-12 10:00:00 13 2 Este 6 Norte 0 -- -- 54
2019-04-12 09:00:00 9.9 3 Norte 6 Noroeste 0 -- -- 53
2019-04-12 08:00:00 6.2 5 Noroeste 8 Norte 0 -- -- 63
2019-04-12 07:00:00 7.1 2 Oeste 5 Sudoeste 0 -- -- 60
2019-04-12 06:00:00 7.5 2 Oeste 9 Oeste 0 -- -- 57
2019-04-12 05:00:00 7.2 2 Oeste 4 Noroeste 0 -- -- 58
2019-04-12 04:00:00 6.9 3 Sudoeste 5 Sudoeste 0 -- -- 62
2019-04-12 03:00:00 7.9 2 Oeste 14 Sur 0 -- -- 60
2019-04-12 02:00:00 11.4 5 Sudoeste 24 Norte 0 -- -- 45
2019-04-12 01:00:00 13.2 10 Norte 28 Norte 0 -- -- 37
2019-04-12 00:00:00 13.1 10 Norte 26 Norte 0 -- -- 39
2019-04-11 23:00:00 13.2 10 Norte 25 Noroeste 0 -- -- 38
2019-04-11 22:00:00 13.4 8 Norte 22 Norte 0 -- -- 39
2019-04-11 21:00:00 14 9 Norte 22 Norte 0 -- -- 38
2019-04-11 20:00:00 15.5 10 Norte 25 Norte 0 -- -- 35
2019-04-11 19:00:00 17.8 9 Nordeste 24 Nordeste 0 -- -- 34
2019-04-11 18:00:00 18.5 3 Norte 14 Sudoeste 0 -- -- 37
2019-04-11 17:00:00 18.2 6 Oeste 14 Sudoeste 0 -- -- 40
2019-04-11 16:00:00 18 3 Sudeste 15 Este 0 -- -- 46
2019-04-11 15:00:00 18.6 5 Sudeste 20 Sudeste 0 -- -- 47
2019-04-11 14:00:00 16.7 6 Sur 17 Sudoeste 0 -- -- 51
2019-04-11 13:00:00 15.5 5 Sur 12 Sudoeste 0 -- -- 50
2019-04-11 12:00:00 14 4 Sudeste 12 Nordeste 0 -- -- 57
2019-04-11 11:00:00 11.5 2 Sudeste 8 Este 0 -- -- 67
2019-04-11 10:00:00 9.6 3 Este 6 Este 0 -- -- 74
2019-04-11 09:00:00 8.3 2 Nordeste 5 Noroeste 0 -- -- 75
2019-04-11 08:00:00 5.7 3 Noroeste 5 Sur 0 -- -- 80
2019-04-11 07:00:00 6 3 Noroeste 8 Noroeste 0 -- -- 78
2019-04-11 06:00:00 5.2 0 Calma 6 Nordeste 0 -- -- 86
2019-04-11 05:00:00 5.6 3 Sudoeste 11 Este 0 -- -- 82
2019-04-11 04:00:00 6.7 3 Oeste 9 Oeste 0 -- -- 77
2019-04-11 03:00:00 7.5 2 Norte 10 Sudoeste 0 -- -- 68
2019-04-11 02:00:00 7.8 3 Oeste 21 Norte 0 -- -- 69
2019-04-11 01:00:00 9.4 5 Nordeste 26 Nordeste 0 -- -- 62
2019-04-11 00:00:00 10 5 Nordeste 23 Norte 0 -- -- 62
2019-04-10 23:00:00 10.1 9 Nordeste 20 Nordeste 0 -- -- 63
2019-04-10 22:00:00 9.3 2 Oeste 19 Norte 0 -- -- 71
2019-04-10 21:00:00 10.9 12 Norte 49 Norte 0 -- -- 58
2019-04-10 20:00:00 9.6 17 Norte 44 Norte 0.6 -- -- 68
2019-04-10 19:00:00 10.2 11 Norte 51 Norte 0.4 -- -- 70
2019-04-10 18:00:00 15.3 2 Sudeste 12 Sudoeste 0 -- -- 52
2019-04-10 17:00:00 14.3 2 Nordeste 8 Sur 0 -- -- 55
2019-04-10 16:00:00 14.1 0 Calma 15 Sur 0 -- -- 54
2019-04-10 15:00:00 13.4 4 Este 17 Este 0 -- -- 55
2019-04-10 14:00:00 13.8 6 Nordeste 15 Nordeste 0 -- -- 51
2019-04-10 13:00:00 13.9 4 Sudoeste 15 Oeste 0 -- -- 49
2019-04-10 12:00:00 12.3 5 Sudoeste 13 Sudoeste 0 -- -- 58
2019-04-10 11:00:00 11.3 3 Norte 12 Este 0 -- -- 68
2019-04-10 10:00:00 10.8 3 Este 12 Este 0 -- -- 71
2019-04-10 09:00:00 9 3 Este 6 Nordeste 0 -- -- 76
2019-04-10 08:00:00 6.7 2 Sudoeste 10 Sur 0 -- -- 83
2019-04-10 07:00:00 7.1 4 Noroeste 12 Noroeste 0 -- -- 79
2019-04-10 06:00:00 7.2 2 Norte 8 Sur 0 -- -- 79
2019-04-10 05:00:00 10.3 4 Noroeste 24 Sudoeste 0 -- -- 56
2019-04-10 04:00:00 9.4 6 Sudoeste 16 Noroeste 0 -- -- 65
2019-04-10 03:00:00 9.1 3 Noroeste 14 Sudoeste 0 -- -- 68
2019-04-10 02:00:00 9.4 4 Noroeste 14 Noroeste 0 -- -- 67
2019-04-10 01:00:00 9.4 6 Norte 17 Oeste 0 -- -- 67
2019-04-10 00:00:00 10.2 4 Sudoeste 24 Sudoeste 0 -- -- 67
2019-04-09 23:00:00 10.6 8 Sudoeste 23 Sudoeste 0 -- -- 65
2019-04-09 22:00:00 10.7 4 Oeste 13 Noroeste 0 -- -- 66
2019-04-09 21:00:00 10.5 4 Noroeste 23 Norte 0 -- -- 71
2019-04-09 20:00:00 12.3 4 Norte 14 Norte 0 -- -- 62
2019-04-09 19:00:00 13.7 0 Calma 13 Norte 0 -- -- 57
2019-04-09 18:00:00 12.8 6 Noroeste 35 Sudoeste 0 -- -- 58
2019-04-09 17:00:00 16.8 9 Sudoeste 25 Sudoeste 0 -- -- 45
2019-04-09 16:00:00 16 12 Sudoeste 28 Sudoeste 0 -- -- 51
2019-04-09 15:00:00 15.5 12 Sudoeste 31 Sur 0 -- -- 53
2019-04-09 14:00:00 12.9 12 Sudoeste 29 Sudoeste 0 -- -- 79
2019-04-09 13:00:00 10.8 8 Sudoeste 19 Sudoeste 0.2 -- -- 88
2019-04-09 12:00:00 8.7 5 Sudoeste 17 Sudoeste 1.4 -- -- 94
2019-04-09 11:00:00 8.2 6 Sudoeste 15 Sudoeste 2.2 -- -- 94
2019-04-09 10:00:00 8.5 7 Sudoeste 19 Sudoeste 0 -- -- 92
2019-04-09 09:00:00 7.1 10 Sudoeste 18 Oeste 3 -- -- 95
2019-04-09 08:00:00 6.7 0 Calma 5 Sudoeste 2 -- -- 95
2019-04-09 07:00:00 6.1 2 Noroeste 4 Sudoeste 0 -- -- 94
2019-04-09 06:00:00 6.2 2 Oeste 6 Oeste 0 -- -- 92
2019-04-09 05:00:00 5.6 0 Calma 10 Noroeste 0 -- -- 93
2019-04-09 04:00:00 5.2 2 Norte 16 Sudoeste 0 -- -- 90
2019-04-09 03:00:00 6.2 3 Noroeste 8 Noroeste 0 -- -- 88
2019-04-09 02:00:00 6.3 0 Calma 9 Sudoeste 0 -- -- 87
2019-04-09 01:00:00 6.8 3 Noroeste 9 Noroeste 0 -- -- 84
2019-04-09 00:00:00 7.8 0 Calma 12 Oeste 0 -- -- 79
2019-04-08 23:00:00 9.1 3 Oeste 7 Sudoeste 0 -- -- 73
2019-04-08 22:00:00 9.8 4 Sudoeste 11 Sudoeste 0 -- -- 71
2019-04-08 21:00:00 10.9 2 Sudoeste 20 Noroeste 0 -- -- 71
2019-04-08 20:00:00 12.8 9 Oeste 36 Sudoeste 0 -- -- 61
2019-04-08 19:00:00 16.2 12 Sudoeste 32 Sur 0 -- -- 46
2019-04-08 18:00:00 17.1 14 Sudoeste 33 Sudoeste 0 -- -- 43
2019-04-08 17:00:00 16.3 13 Sudoeste 35 Sur 0 -- -- 51
2019-04-08 16:00:00 16.2 14 Sudoeste 31 Sur 0 -- -- 52
2019-04-08 15:00:00 15.3 11 Sudoeste 31 Sudoeste 0 -- -- 55
2019-04-08 14:00:00 15.9 12 Sudoeste 34 Sudoeste 0 -- -- 59
2019-04-08 13:00:00 14.5 11 Sudoeste 31 Sur 0 -- -- 67
2019-04-08 12:00:00 13.6 14 Sur 29 Sudoeste 0 -- -- 76
2019-04-08 11:00:00 12.2 5 Sur 17 Sudoeste 0 -- -- 88
2019-04-08 10:00:00 10.3 5 Sudoeste 12 Sur 0 -- -- 97
2019-04-08 09:00:00 9.4 0 Calma 2 Este 0.2 -- -- 97
2019-04-08 08:00:00 9 0 Calma 4 Noroeste 0.2 -- -- 97
2019-04-08 07:00:00 8.9 0 Calma 5 Norte 6.2 -- -- 97
2019-04-08 06:00:00 8.5 0 Calma -- -- 5.8 -- -- 97
2019-04-08 05:00:00 8.4 0 Calma -- -- 3.8 -- -- 97
2019-04-08 04:00:00 8.4 0 Calma -- -- 1.4 -- -- 97
2019-04-08 03:00:00 8.5 0 Calma -- -- 0.4 -- -- 96
2019-04-08 02:00:00 8.5 0 Calma -- -- 0.6 -- -- 96
2019-04-08 01:00:00 8.5 0 Calma -- -- 0.2 -- -- 96
2019-04-08 00:00:00 8.4 0 Calma -- -- 0.4 -- -- 96
2019-04-07 23:00:00 8.5 0 Calma -- -- 1 -- -- 95
2019-04-07 22:00:00 8.7 0 Calma 3 Este 1.8 -- -- 95
2019-04-07 21:00:00 8.9 0 Calma 4 Sudoeste 0.8 -- -- 93
2019-04-07 20:00:00 9.4 2 Sudoeste 8 Sudoeste 0.4 -- -- 91
2019-04-07 19:00:00 9.8 4 Sudoeste 14 Sudoeste 0.6 -- -- 90
2019-04-07 18:00:00 10.2 5 Sudoeste 16 Sudoeste 0 -- -- 82
2019-04-07 17:00:00 11.5 8 Sudoeste 21 Sudoeste 0 -- -- 70
2019-04-07 16:00:00 12.1 3 Oeste 16 Sudoeste 0 -- -- 67
2019-04-07 15:00:00 12 6 Sur 23 Sur 0 -- -- 64
2019-04-07 14:00:00 12.9 8 Sur 20 Sur 0 -- -- 64
2019-04-07 13:00:00 10.8 3 Oeste 11 Sudoeste 0 -- -- 72
2019-04-07 12:00:00 10.1 3 Nordeste 8 Noroeste 0 -- -- 73
2019-04-07 11:00:00 9.9 2 Noroeste 12 Este 0 -- -- 75
2019-04-07 10:00:00 9 4 Este 13 Este 0 -- -- 84
2019-04-07 09:00:00 4.9 2 Nordeste 8 Norte 0 -- -- 94
2019-04-07 08:00:00 3.9 2 Noroeste 5 Sudoeste 0 -- -- 95
2019-04-07 07:00:00 3.7 3 Noroeste 6 Noroeste 0 -- -- 94
2019-04-07 06:00:00 3.9 2 Noroeste 5 Nordeste 0 -- -- 95
2019-04-07 05:00:00 3.4 2 Norte 9 Sudoeste 0 -- -- 96
2019-04-07 04:00:00 3.6 0 Calma 13 Norte 0 -- -- 93
2019-04-07 03:00:00 4.2 3 Noroeste 8 Noroeste 0 -- -- 94
2019-04-07 02:00:00 5.3 2 Noroeste 6 Oeste 0 -- -- 90
2019-04-07 01:00:00 5.8 4 Sudoeste 16 Sudoeste 0 -- -- 85
2019-04-07 00:00:00 5.6 2 Noroeste 12 Sudoeste 0 -- -- 88
2019-04-06 23:00:00 5.5 2 Sur 9 Sur 0 -- -- 89
2019-04-06 22:00:00 5.9 3 Sudoeste 17 Sudoeste 0 -- -- 86
2019-04-06 21:00:00 5.7 2 Oeste 9 Sudoeste 0 -- -- 92
2019-04-06 20:00:00 7 0 Calma 14 Norte 0 -- -- 88
2019-04-06 19:00:00 7 5 Norte 24 Sur 1.8 -- -- 86
2019-04-06 18:00:00 9.9 15 Sudoeste 51 Sudoeste 0 -- -- 68
2019-04-06 17:00:00 11.3 15 Sudoeste 39 Sur 0 -- -- 62
2019-04-06 16:00:00 11.2 18 Sudoeste 46 Sur 0 -- -- 61
2019-04-06 15:00:00 10.5 18 Sudoeste 43 Sudoeste 0 -- -- 58
2019-04-06 14:00:00 8.9 15 Sudoeste 33 Sudoeste 0 -- -- 74
2019-04-06 13:00:00 7.8 13 Sudoeste 31 Sudoeste 0 -- -- 82
2019-04-06 12:00:00 7.5 10 Sudoeste 35 Sudoeste 0 -- -- 87
2019-04-06 11:00:00 7.7 8 Sudoeste 22 Sudoeste 0.4 -- -- 92
2019-04-06 10:00:00 4.9 4 Sudoeste 12 Sudoeste 1.6 -- -- 97
2019-04-06 09:00:00 4 0 Calma 5 Noroeste 0.6 -- -- 97
2019-04-06 08:00:00 3.4 2 Noroeste 8 Norte 0 -- -- 97
2019-04-06 07:00:00 2.7 0 Calma 5 Noroeste 0 -- -- 97
2019-04-06 06:00:00 2.7 0 Calma 6 Norte 0 -- -- 97
2019-04-06 05:00:00 2.3 0 Calma 4 Norte 0 -- -- 97
2019-04-06 04:00:00 2.5 0 Calma 6 Noroeste 0 -- -- 97
2019-04-06 03:00:00 2.5 2 Noroeste 6 Noroeste 0 -- -- 96
2019-04-06 02:00:00 3 3 Noroeste 8 Noroeste 0 -- -- 96
2019-04-06 01:00:00 3.3 2 Noroeste 4 Noroeste 0 -- -- 95
2019-04-06 00:00:00 3.9 0 Calma 16 Sudoeste 0 -- -- 94
2019-04-05 23:00:00 5.1 7 Sudoeste 19 Sudoeste 3.4 -- -- 90
2019-04-05 22:00:00 6.8 4 Sudoeste 11 Sudoeste 0 -- -- 83
2019-04-05 21:00:00 7.6 5 Sudoeste 19 Sudoeste 0 -- -- 73
2019-04-05 20:00:00 8.7 4 Oeste 28 Sudoeste 0 -- -- 62
2019-04-05 19:00:00 9.3 10 Sudoeste 33 Sur 0 -- -- 69
2019-04-05 18:00:00 11.8 15 Sudoeste 35 Sudoeste 0 -- -- 47
2019-04-05 17:00:00 12.4 8 Sudoeste 27 Sudoeste 0 -- -- 48
2019-04-05 16:00:00 9.5 4 Noroeste 39 Sudoeste 0 -- -- 63
2019-04-05 15:00:00 11.2 11 Sudoeste 35 Sudoeste 0 -- -- 62
2019-04-05 14:00:00 9.3 9 Sur 30 Sur 0.2 -- -- 77
2019-04-05 13:00:00 8.2 7 Sur 18 Sur 0 -- -- 87
2019-04-05 12:00:00 7.5 2 Sudoeste 10 Sudoeste 1.6 -- -- 91
2019-04-05 11:00:00 6.8 0 Calma 4 Nordeste 0.4 -- -- 89
2019-04-05 10:00:00 5.7 2 Noroeste 3 Norte 0.8 -- -- 94
2019-04-05 09:00:00 5.2 2 Noroeste 8 Sudoeste 1.2 -- -- 93
2019-04-05 08:00:00 5 0 Calma 8 Noroeste 4.2 -- -- 94
2019-04-05 07:00:00 5.5 0 Calma 3 Noroeste 2.6 -- -- 95
2019-04-05 06:00:00 5.2 0 Calma 5 Oeste 1.8 -- -- 94
2019-04-05 05:00:00 4.9 3 Norte 10 Norte 0.6 -- -- 91
2019-04-05 04:00:00 5.7 2 Noroeste 5 Noroeste 2.4 -- -- 94
2019-04-05 03:00:00 5.9 0 Calma 4 Sur 1.4 -- -- 93
2019-04-05 02:00:00 6.1 0 Calma 10 Sudoeste 1.4 -- -- 90
2019-04-05 01:00:00 6.6 3 Sudoeste 15 Oeste 0.6 -- -- 85
2019-04-05 00:00:00 7.4 4 Oeste 10 Noroeste 0.4 -- -- 81
2019-04-04 23:00:00 9.8 5 Oeste 26 Sudoeste 0 -- -- 62
2019-04-04 22:00:00 11.8 5 Oeste 18 Oeste 0 -- -- 36
2019-04-04 21:00:00 12 3 Sudoeste 19 Sudoeste 0 -- -- 33
2019-04-04 20:00:00 13.5 4 Sudoeste 15 Oeste 0 -- -- 34
2019-04-04 19:00:00 14.9 7 Sudoeste 25 Sudoeste 0 -- -- 31
2019-04-04 18:00:00 16.1 9 Sudoeste 26 Sudoeste 0 -- -- 29
2019-04-04 17:00:00 16.3 7 Sur 22 Sur 0 -- -- 26
2019-04-04 16:00:00 15.7 6 Sudoeste 22 Sur 0 -- -- 30
2019-04-04 15:00:00 14.8 6 Sur 20 Sur 0 -- -- 32
2019-04-04 14:00:00 14 8 Sur 18 Sur 0 -- -- 33
2019-04-04 13:00:00 13.6 5 Sudeste 14 Sudeste 0 -- -- 37
2019-04-04 12:00:00 11.2 5 Sur 13 Sur 0 -- -- 43
2019-04-04 11:00:00 9.7 3 Sudeste 10 Sur 0 -- -- 47
2019-04-04 10:00:00 7.2 2 Sudeste 8 Este 0 -- -- 51
2019-04-04 09:00:00 4.5 0 Calma 7 Norte 0 -- -- 56
2019-04-04 08:00:00 3.3 2 Oeste 5 Noroeste 0 -- -- 61
2019-04-04 07:00:00 3.7 2 Noroeste 4 Noroeste 0 -- -- 59
2019-04-04 06:00:00 4.3 2 Oeste 7 Oeste 0 -- -- 59
2019-04-04 05:00:00 5.9 0 Calma 22 Nordeste 0 -- -- 50
2019-04-04 04:00:00 8.3 12 Norte 40 Norte 0 -- -- 41
2019-04-04 03:00:00 8.3 11 Norte 36 Norte 0 -- -- 41
2019-04-04 02:00:00 8.8 15 Norte 47 Noroeste 0 -- -- 40
2019-04-04 01:00:00 9.4 18 Norte 48 Norte 0 -- -- 39
2019-04-04 00:00:00 10.2 22 Norte 50 Norte 0 -- -- 39
2019-04-03 23:00:00 10.8 19 Norte 49 Norte 0 -- -- 37
2019-04-03 22:00:00 11.2 17 Norte 41 Norte 0 -- -- 35
2019-04-03 21:00:00 12.2 17 Norte 37 Norte 0 -- -- 33
2019-04-03 20:00:00 13.4 14 Norte 42 Norte 0 -- -- 32
2019-04-03 19:00:00 15.4 14 Norte 33 Noroeste 0 -- -- 30
2019-04-03 18:00:00 16.5 13 Norte 39 Noroeste 0 -- -- 28
2019-04-03 17:00:00 17.1 14 Norte 36 Noroeste 0 -- -- 33
2019-04-03 16:00:00 18.2 8 Norte 24 Nordeste 0 -- -- 29
2019-04-03 15:00:00 17.9 8 Norte 21 Noroeste 0 -- -- 33
2019-04-03 14:00:00 17.8 5 Sudeste 16 Sur 0 -- -- 52
2019-04-03 13:00:00 15.4 6 Este 12 Este 0 -- -- 58
2019-04-03 12:00:00 13.2 5 Sur 13 Sur 0 -- -- 69
2019-04-03 11:00:00 11.8 6 Este 13 Este 0 -- -- 73
2019-04-03 10:00:00 9.3 4 Este 9 Este 0 -- -- 81
2019-04-03 09:00:00 7.3 2 Nordeste 5 Nordeste 0 -- -- 87
2019-04-03 08:00:00 6.2 2 Norte 7 Norte 0 -- -- 87
2019-04-03 07:00:00 6.3 0 Calma 5 Norte 0 -- -- 89
2019-04-03 06:00:00 6.7 0 Calma 4 Norte 0 -- -- 88
2019-04-03 05:00:00 9 2 Norte 6 Noroeste 0 -- -- 79
2019-04-03 04:00:00 8.8 3 Norte 4 Norte 0 -- -- 79
2019-04-03 03:00:00 8.8 0 Calma 5 Este 0 -- -- 81
2019-04-03 02:00:00 9.6 0 Calma 5 Nordeste 0 -- -- 80
2019-04-03 01:00:00 10.3 0 Calma 7 Noroeste 0 -- -- 77
2019-04-03 00:00:00 12.6 2 Norte 5 Noroeste 0 -- -- 71
2019-04-02 23:00:00 12.7 2 Norte 8 Norte 0 -- -- 69
2019-04-02 22:00:00 12.4 0 Calma 8 Norte 0 -- -- 74
2019-04-02 21:00:00 13.6 5 Noroeste 9 Noroeste 0 -- -- 74
2019-04-02 20:00:00 14.6 5 Noroeste 11 Noroeste 0 -- -- 73
2019-04-02 19:00:00 14.5 4 Noroeste 9 Norte 1.8 -- -- 81
2019-04-02 18:00:00 19.5 4 Nordeste 15 Norte 0 -- -- 51
2019-04-02 17:00:00 17.2 3 Nordeste 7 Nordeste 0 -- -- 63
2019-04-02 16:00:00 14.7 2 Oeste 14 Oeste 0 -- -- 71
2019-04-02 15:00:00 15.5 2 Oeste 14 Sudoeste 0.6 -- -- 77
2019-04-02 14:00:00 18.2 6 Sur 15 Sudoeste 0 -- -- 57
2019-04-02 13:00:00 17.7 3 Sudeste 14 Sur 0 -- -- 59
2019-04-02 12:00:00 15.8 4 Sur 12 Sudoeste 0 -- -- 66
2019-04-02 11:00:00 13.6 3 Sudeste 10 Este 0 -- -- 75
2019-04-02 10:00:00 10.6 2 Este 6 Nordeste 0 -- -- 86
2019-04-02 09:00:00 8.2 2 Noroeste 8 Norte 0 -- -- 92
2019-04-02 08:00:00 8 3 Norte 6 Noroeste 0 -- -- 94
2019-04-02 07:00:00 8.2 0 Calma 8 Norte 0 -- -- 89
2019-04-02 06:00:00 9.1 0 Calma 6 Noroeste 0 -- -- 88
2019-04-02 05:00:00 8.9 0 Calma 4 Norte 0 -- -- 88
2019-04-02 04:00:00 10 0 Calma 5 Noroeste 0 -- -- 87
2019-04-02 03:00:00 10.3 3 Norte 6 Norte 0 -- -- 82
2019-04-02 02:00:00 10.2 2 Norte 5 Noroeste 0 -- -- 79
2019-04-02 01:00:00 11.3 2 Norte 6 Sudoeste 0 -- -- 73
2019-04-02 00:00:00 12.4 3 Noroeste 4 Nordeste 0 -- -- 67
2019-04-01 23:00:00 12.8 2 Oeste 6 Oeste 0 -- -- 68
2019-04-01 22:00:00 13 4 Noroeste 6 Noroeste 0 -- -- 70
2019-04-01 21:00:00 13.7 2 Noroeste 9 Sudoeste 0 -- -- 70
2019-04-01 20:00:00 15.6 0 Calma 6 Norte 0 -- -- 64
2019-04-01 19:00:00 16.9 0 Calma 14 Noroeste 0 -- -- 55
2019-04-01 18:00:00 16.5 3 Norte 17 Nordeste 0 -- -- 56
2019-04-01 17:00:00 17 4 Nordeste 9 Nordeste 0 -- -- 51
2019-04-01 16:00:00 17.3 4 Este 10 Este 0 -- -- 53
2019-04-01 15:00:00 16.6 2 Sudeste 12 Este 0 -- -- 52
2019-04-01 14:00:00 16.1 2 Este 11 Este 0 -- -- 57
2019-04-01 13:00:00 15.3 3 Nordeste 10 Este 0 -- -- 66
2019-04-01 12:00:00 15.2 2 Este 13 Este 0 -- -- 62
2019-04-01 11:00:00 15 4 Este 12 Este 0 -- -- 66
2019-04-01 10:00:00 12.6 3 Este 8 Nordeste 0 -- -- 74
2019-04-01 09:00:00 10.1 2 Noroeste 4 Sur 0 -- -- 83
2019-04-01 08:00:00 8.6 2 Sudoeste 4 Sur 0 -- -- 88
2019-04-01 07:00:00 9.2 0 Calma 3 Nordeste 0 -- -- 83
2019-04-01 06:00:00 9.4 0 Calma 4 Este 0 -- -- 82
2019-04-01 05:00:00 10.4 0 Calma 3 Sur 0 -- -- 78
2019-04-01 04:00:00 10.7 2 Oeste 4 Noroeste 0 -- -- 77
2019-04-01 03:00:00 11 0 Calma 5 Sudoeste 0 -- -- 74
2019-04-01 02:00:00 11.4 0 Calma 11 Este 0 -- -- 71
2019-04-01 01:00:00 11.9 3 Sudeste 8 Este 0 -- -- 68
2019-04-01 00:00:00 12.1 2 Este 15 Este 0 -- -- 68
2019-03-31 23:00:00 11.7 0 Calma 6 Sur 0 -- -- 69
2019-03-31 22:00:00 11.3 3 Sur 10 Sur 0 -- -- 70
2019-03-31 21:00:00 12.2 2 Sudoeste 15 Este 0 -- -- 66
2019-03-31 20:00:00 14 5 Este 24 Este 0 -- -- 62
2019-03-31 19:00:00 15.7 8 Este 23 Este 0 -- -- 55
2019-03-31 18:00:00 18.5 6 Este 15 Este 0 -- -- 50
2019-03-31 17:00:00 16.3 4 Nordeste 15 Nordeste 0 -- -- 51
2019-03-31 16:00:00 16.7 7 Nordeste 20 Nordeste 0 -- -- 49
2019-03-31 15:00:00 18.7 5 Este 24 Nordeste 0 -- -- 45
2019-03-31 14:00:00 19 5 Sudeste 21 Este 0 -- -- 44
2019-03-31 13:00:00 18.6 4 Sudeste 16 Este 0 -- -- 44
2019-03-31 12:00:00 16.4 7 Sudeste 28 Nordeste 0 -- -- 49
2019-03-31 11:00:00 14.9 6 Este 17 Este 0 -- -- 58
2019-03-31 10:00:00 11.9 4 Este 15 Este 0 -- -- 63
2019-03-31 09:00:00 8.8 0 Calma 5 Sudoeste 0 -- -- 76
2019-03-31 08:00:00 8.5 4 Sudoeste 14 Sudoeste 0 -- -- 73
2019-03-31 07:00:00 8.1 4 Sudoeste 10 Sur 0 -- -- 72
2019-03-31 06:00:00 9.9 4 Noroeste 13 Sudoeste 0 -- -- 63
2019-03-31 05:00:00 9.2 3 Oeste 12 Sur 0 -- -- 61
2019-03-31 03:00:00 11.6 6 Noroeste 16 Oeste 0 -- -- 47
2019-03-31 01:00:00 11.8 9 Sudoeste 17 Sudoeste 0 -- -- 51
2019-03-31 00:00:00 13.8 5 Noroeste 12 Norte 0 -- -- 38
2019-03-30 23:00:00 14.2 5 Noroeste 9 Noroeste 0 -- -- 40
2019-03-30 22:00:00 14.3 4 Noroeste 12 Noroeste 0 -- -- 43
2019-03-30 21:00:00 14.7 5 Norte 10 Noroeste 0 -- -- 43
2019-03-30 20:00:00 15.4 4 Noroeste 6 Noroeste 0 -- -- 42
2019-03-30 19:00:00 16.9 0 Calma 9 Este 0 -- -- 41
2019-03-30 18:00:00 18.3 2 Sudeste 13 Este 0 -- -- 38
2019-03-30 17:00:00 19.9 5 Este 19 Este 0 -- -- 40
2019-03-30 16:00:00 20.3 4 Este 18 Este 0 -- -- 35
2019-03-30 15:00:00 20.2 5 Sudeste 17 Este 0 -- -- 35
2019-03-30 14:00:00 19.8 6 Este 18 Este 0 -- -- 35
2019-03-30 13:00:00 18.2 6 Sudeste 19 Este 0 -- -- 42
2019-03-30 12:00:00 16.9 4 Sudeste 17 Este 0 -- -- 44
2019-03-30 11:00:00 16 6 Este 23 Este 0 -- -- 42
2019-03-30 10:00:00 13.2 7 Este 14 Este 0 -- -- 49
2019-03-30 09:00:00 9.7 2 Este 8 Sudoeste 0 -- -- 62
2019-03-30 08:00:00 7.8 3 Sudoeste 10 Sudoeste 0 -- -- 66
2019-03-30 07:00:00 7 4 Oeste 12 Sudoeste 0 -- -- 67
2019-03-30 06:00:00 7.1 2 Oeste 11 Sudoeste 0 -- -- 66
2019-03-30 05:00:00 8.2 6 Sudoeste 13 Sudoeste 0 -- -- 62
2019-03-30 04:00:00 8 5 Sudoeste 9 Sur 0 -- -- 58
2019-03-30 03:00:00 8.9 3 Sudoeste 7 Sudoeste 0 -- -- 53
2019-03-30 02:00:00 9.3 2 Oeste 7 Sudoeste 0 -- -- 48
2019-03-30 01:00:00 11.5 4 Noroeste 8 Noroeste 0 -- -- 40
2019-03-30 00:00:00 12 3 Noroeste 7 Noroeste 0 -- -- 38
2019-03-29 23:00:00 12.3 4 Noroeste 9 Noroeste 0 -- -- 35
2019-03-29 22:00:00 13.4 4 Norte 11 Norte 0 -- -- 32
2019-03-29 21:00:00 13.4 4 Norte 10 Norte 0 -- -- 34
2019-03-29 20:00:00 14 4 Noroeste 10 Este 0 -- -- 33
2019-03-29 19:00:00 16.4 3 Sudeste 14 Sur 0 -- -- 30
2019-03-29 18:00:00 17.9 5 Este 17 Este 0 -- -- 27
2019-03-29 17:00:00 19.9 4 Este 22 Este 0 -- -- 28
2019-03-29 16:00:00 19.8 9 Este 28 Este 0 -- -- 28
2019-03-29 15:00:00 19.7 10 Este 27 Este 0 -- -- 28
2019-03-29 14:00:00 19.2 10 Este 29 Este 0 -- -- 30
2019-03-29 13:00:00 18.4 11 Este 31 Este 0 -- -- 31
2019-03-29 12:00:00 17.6 10 Este 33 Este 0 -- -- 30
2019-03-29 11:00:00 17 13 Este 37 Este 0 -- -- 29
2019-03-29 10:00:00 14.2 3 Sudeste 8 Sur 0 -- -- 37
2019-03-29 09:00:00 10.5 3 Sudoeste 12 Sudoeste 0 -- -- 43
2019-03-29 08:00:00 8 4 Sudoeste 10 Sudoeste 0 -- -- 49
2019-03-29 07:00:00 7.1 2 Sudoeste 12 Sudoeste 0 -- -- 48
2019-03-29 06:00:00 8.3 7 Sudoeste 12 Sudoeste 0 -- -- 43
2019-03-29 05:00:00 11 2 Oeste 14 Norte 0 -- -- 38
2019-03-29 04:00:00 10.7 5 Norte 13 Norte 0 -- -- 37
2019-03-29 03:00:00 11.7 4 Norte 13 Norte 0 -- -- 33
2019-03-29 02:00:00 12.7 5 Norte 12 Nordeste 0 -- -- 29
2019-03-29 01:00:00 12.8 4 Norte 11 Norte 0 -- -- 30
2019-03-29 00:00:00 12.9 5 Norte 13 Norte 0 -- -- 30
2019-03-28 23:00:00 13 4 Noroeste 12 Norte 0 -- -- 30
2019-03-28 22:00:00 13.2 5 Norte 16 Norte 0 -- -- 32
2019-03-28 21:00:00 14.1 4 Norte 12 Noroeste 0 -- -- 30
2019-03-28 20:00:00 14.8 2 Norte 6 Norte 0 -- -- 31
2019-03-28 19:00:00 17 2 Sur 13 Este 0 -- -- 32
2019-03-28 18:00:00 18.9 5 Este 18 Este 0 -- -- 26
2019-03-28 17:00:00 20.7 7 Este 21 Este 0 -- -- 26
2019-03-28 16:00:00 21.1 5 Este 17 Este 0 -- -- 26
2019-03-28 15:00:00 20.8 6 Este 24 Este 0 -- -- 22
2019-03-28 14:00:00 20.4 5 Este 15 Este 0 -- -- 25
2019-03-28 13:00:00 19.8 6 Este 18 Este 0 -- -- 25
2019-03-28 12:00:00 19.2 5 Este 18 Nordeste 0 -- -- 26
2019-03-28 11:00:00 16.3 4 Sudeste 13 Este 0 -- -- 34
2019-03-28 10:00:00 12.7 3 Sur 12 Sur 0 -- -- 41
2019-03-28 09:00:00 11.4 2 Este 9 Noroeste 0 -- -- 42
2019-03-28 08:00:00 7.2 3 Noroeste 9 Sudoeste 0 -- -- 53
2019-03-28 07:00:00 6.2 2 Sudoeste 8 Noroeste 0 -- -- 60
2019-03-28 06:00:00 6.3 0 Calma 8 Sudoeste 0 -- -- 57
2019-03-28 05:00:00 9.4 5 Sudoeste 12 Sudoeste 0 -- -- 47
2019-03-28 04:00:00 8.9 5 Sudoeste 9 Sudoeste 0 -- -- 49
2019-03-28 03:00:00 10.2 0 Calma 12 Noroeste 0 -- -- 48
2019-03-28 02:00:00 8.6 6 Oeste 11 Oeste 0 -- -- 53
2019-03-28 01:00:00 10.5 0 Calma 13 Norte 0 -- -- 46
2019-03-28 00:00:00 12.9 6 Noroeste 11 Noroeste 0 -- -- 38
2019-03-27 23:00:00 13 4 Noroeste 9 Noroeste 0 -- -- 39
2019-03-27 22:00:00 13.2 5 Noroeste 9 Noroeste 0 -- -- 41
2019-03-27 21:00:00 13.5 5 Noroeste 9 Norte 0 -- -- 42
2019-03-27 20:00:00 14.3 5 Noroeste 10 Noroeste 0 -- -- 42
2019-03-27 19:00:00 15.4 2 Sudoeste 7 Sur 0 -- -- 40
2019-03-27 18:00:00 17.8 2 Sudeste 8 Este 0 -- -- 35
2019-03-27 17:00:00 19.3 3 Sudeste 15 Sudoeste 0 -- -- 32
2019-03-27 16:00:00 19.6 4 Sudeste 16 Este 0 -- -- 32
2019-03-27 15:00:00 19.4 5 Sudeste 16 Este 0 -- -- 33
2019-03-27 14:00:00 18.5 4 Este 17 Este 0 -- -- 36
2019-03-27 13:00:00 18.3 7 Este 22 Este 0 -- -- 32
2019-03-27 12:00:00 17.4 8 Este 22 Este 0 -- -- 35
2019-03-27 11:00:00 15.7 11 Este 27 Este 0 -- -- 39
2019-03-27 10:00:00 13.9 6 Este 21 Este 0 -- -- 47
2019-03-27 09:00:00 10.1 2 Norte 11 Este 0 -- -- 50
2019-03-27 08:00:00 7.9 3 Norte 13 Norte 0 -- -- 60
2019-03-27 07:00:00 7.5 2 Sudeste 31 Este 0 -- -- 61
2019-03-27 06:00:00 8.6 4 Este 24 Este 0 -- -- 54
2019-03-27 05:00:00 9.8 5 Este 20 Este 0 -- -- 52
2019-03-27 04:00:00 11.1 6 Este 26 Este 0 -- -- 44
2019-03-27 03:00:00 13.2 13 Este 37 Este 0 -- -- 36
2019-03-27 02:00:00 13.8 11 Este 31 Este 0 -- -- 35
2019-03-27 01:00:00 15 10 Este 34 Este 0 -- -- 29
2019-03-27 00:00:00 15.2 6 Este 32 Este 0 -- -- 25
2019-03-26 23:00:00 16.1 14 Este 31 Este 0 -- -- 24
2019-03-26 22:00:00 15 9 Este 19 Este 0 -- -- 34
2019-03-26 21:00:00 15.3 6 Norte 15 Norte 0 -- -- 35
2019-03-26 20:00:00 17.2 4 Norte 18 Este 0 -- -- 31
2019-03-26 19:00:00 19.1 9 Este 31 Este 0 -- -- 29
2019-03-26 18:00:00 20.2 11 Este 35 Este 0 -- -- 27
2019-03-26 17:00:00 22 10 Este 28 Este 0 -- -- 25
2019-03-26 16:00:00 22.3 10 Este 31 Este 0 -- -- 27
2019-03-26 15:00:00 21.9 12 Este 33 Este 0 -- -- 29
2019-03-26 14:00:00 21.5 11 Este 33 Este 0 -- -- 30
2019-03-26 13:00:00 21.2 8 Este 25 Este 0 -- -- 32
2019-03-26 12:00:00 18.2 5 Este 13 Este 0 -- -- 35
2019-03-26 11:00:00 15.5 3 Sudeste 9 Este 0 -- -- 45
2019-03-26 10:00:00 12.2 3 Sur 9 Sur 0 -- -- 48
2019-03-26 09:00:00 9.3 3 Sur 7 Sudoeste 0 -- -- 53
2019-03-26 08:00:00 7 0 Calma 9 Sudoeste 0 -- -- 58
2019-03-26 07:00:00 7.1 0 Calma 8 Oeste 0 -- -- 58
2019-03-26 06:00:00 6.9 3 Noroeste 7 Sudoeste 0 -- -- 53
2019-03-26 05:00:00 7.1 3 Sudoeste 10 Sur 0 -- -- 54
2019-03-26 04:00:00 8 4 Sudoeste 9 Sudoeste 0 -- -- 53
2019-03-26 03:00:00 8.9 3 Sudoeste 6 Norte -- -- -- 50
2019-03-26 02:00:00 10.4 6 Sudoeste 14 Sur 0 -- -- 51
2019-03-26 01:00:00 12.5 4 Sudoeste 14 Sudoeste 0 -- -- 47
2019-03-26 00:00:00 15.5 4 Norte 9 Norte 0 -- -- 35
2019-03-25 23:00:00 15.1 4 Noroeste 9 Norte 0 -- -- 36
2019-03-25 22:00:00 16.4 3 Noroeste 10 Norte 0 -- -- 33
2019-03-25 21:00:00 17.5 5 Norte 21 Norte 0 -- -- 26
2019-03-25 20:00:00 18.7 9 Norte 23 Nordeste 0 -- -- 25
2019-03-25 19:00:00 19.2 5 Noroeste 14 Oeste 0 -- -- 29
2019-03-25 18:00:00 21.2 2 Este 9 Sur 0 -- -- 34
2019-03-25 17:00:00 23.1 3 Oeste 14 Este 0 -- -- 28
2019-03-25 16:00:00 23.3 4 Este 14 Este 0 -- -- 33
2019-03-25 15:00:00 23.1 4 Sudeste 19 Sur 0 -- -- 32
2019-03-25 14:00:00 22.5 3 Sudeste 22 Sur 0 -- -- 30
2019-03-25 13:00:00 21.1 4 Sur 12 Este 0 -- -- 33
2019-03-25 12:00:00 19.8 5 Este 13 Este 0 -- -- 36
2019-03-25 11:00:00 17.9 3 Sudeste 10 Sudeste 0 -- -- 42
2019-03-25 10:00:00 14.9 3 Sudeste 9 Sur 0 -- -- 53
2019-03-25 09:00:00 12.3 0 Calma 5 Sudoeste 0 -- -- 51
2019-03-25 08:00:00 9.7 4 Sudoeste 6 Sudoeste 0 -- -- 62
2019-03-25 07:00:00 9.3 2 Sudoeste 10 Sudoeste 0 -- -- 57
2019-03-25 06:00:00 10.3 4 Sudoeste 8 Sudoeste 0 -- -- 55
2019-03-25 05:00:00 12.3 5 Noroeste 8 Norte 0 -- -- 46
2019-03-25 04:00:00 10.6 3 Oeste 8 Noroeste 0 -- -- 52
2019-03-25 03:00:00 12.1 2 Sur 13 Noroeste 0 -- -- 50
2019-03-25 02:00:00 15.1 5 Norte 12 Norte 0 -- -- 38
2019-03-25 01:00:00 15 5 Norte 10 Noroeste 0 -- -- 39
2019-03-25 00:00:00 15.3 3 Norte 13 Noroeste 0 -- -- 37
2019-03-24 23:00:00 15.7 5 Noroeste 12 Norte 0 -- -- 36
2019-03-24 22:00:00 16.3 4 Norte 9 Norte 0 -- -- 34
2019-03-24 21:00:00 16.6 3 Norte 9 Noroeste 0 -- -- 34
2019-03-24 20:00:00 17.3 4 Norte 17 Este 0 -- -- 33
2019-03-24 19:00:00 18.8 8 Este 24 Este 0 -- -- 32
2019-03-24 18:00:00 20.1 10 Este 32 Este 0 -- -- 30
2019-03-24 17:00:00 21.6 9 Este 31 Este 0 -- -- 28
2019-03-24 16:00:00 22.2 9 Este 29 Este 0 -- -- 30
2019-03-24 15:00:00 22 11 Este 35 Nordeste 0 -- -- 30
2019-03-24 14:00:00 21.5 12 Este 39 Este 0 -- -- 31
2019-03-24 13:00:00 21.2 13 Este 33 Este 0 -- -- 35
2019-03-24 12:00:00 19.9 16 Este 38 Este 0 -- -- 36
2019-03-24 11:00:00 19.6 11 Este 31 Este 0 -- -- 37
2019-03-24 10:00:00 16.6 4 Este 17 Este 0 -- -- 45
2019-03-24 09:00:00 14.2 4 Este 10 Este 0 -- -- 45
2019-03-24 08:00:00 10.7 3 Sudoeste 12 Este 0 -- -- 58
2019-03-24 07:00:00 10.5 3 Este 13 Este 0 -- -- 57
2019-03-24 06:00:00 11.3 0 Calma 12 Este 0 -- -- 55
2019-03-24 05:00:00 12.1 3 Este 18 Este 0 -- -- 50
2019-03-24 04:00:00 12 3 Este 22 Este 0 -- -- 52
2019-03-24 03:00:00 13.2 6 Nordeste 30 Este 0 -- -- 48
2019-03-24 02:00:00 14.2 8 Nordeste 25 Este 0 -- -- 46
2019-03-24 01:00:00 14.2 10 Nordeste 18 Nordeste 0 -- -- 47
2019-03-24 00:00:00 13.9 2 Nordeste 14 Este 0 -- -- 49
2019-03-23 23:00:00 14.1 6 Nordeste 17 Nordeste 0 -- -- 47
2019-03-23 22:00:00 14.6 5 Nordeste 16 Este 0 -- -- 44
2019-03-23 21:00:00 15.6 4 Este 12 Este 0 -- -- 42
2019-03-23 20:00:00 16.9 3 Este 9 Este 0 -- -- 41
2019-03-23 19:00:00 18.4 4 Este 23 Este 0 -- -- 36
2019-03-23 18:00:00 19.9 8 Este 30 Este 0 -- -- 33
2019-03-23 17:00:00 21.1 13 Este 28 Este 0 -- -- 29
2019-03-23 16:00:00 21.6 12 Este 34 Este 0 -- -- 32
2019-03-23 15:00:00 21.5 10 Sudeste 32 Este 0 -- -- 33
2019-03-23 14:00:00 21.2 10 Sudeste 36 Este 0 -- -- 33
2019-03-23 13:00:00 21 7 Este 23 Sudeste 0 -- -- 37
2019-03-23 12:00:00 18.5 8 Este 20 Nordeste 0 -- -- 44
2019-03-23 11:00:00 17 6 Este 14 Este 0 -- -- 47
2019-03-23 10:00:00 13.3 3 Sudeste 9 Sur 0 -- -- 56
2019-03-23 09:00:00 9.9 2 Este 8 Sur 0 -- -- 66
2019-03-23 08:00:00 8.5 3 Sudoeste 7 Este 0 -- -- 67
2019-03-23 07:00:00 7.9 5 Sudoeste 13 Sudoeste 0 -- -- 67
2019-03-23 06:00:00 9.7 0 Calma 9 Noroeste 0 -- -- 60
2019-03-23 05:00:00 9.7 0 Calma 9 Oeste 0 -- -- 57
2019-03-23 04:00:00 10.3 2 Oeste 7 Norte 0 -- -- 54
2019-03-23 03:00:00 12.2 2 Noroeste 8 Norte 0 -- -- 48
2019-03-23 02:00:00 12.7 4 Norte 11 Este 0 -- -- 44
2019-03-23 01:00:00 12.6 3 Nordeste 19 Nordeste 0 -- -- 44
2019-03-23 00:00:00 13.2 5 Norte 12 Norte 0 -- -- 40
2019-03-22 23:00:00 13.6 5 Norte 14 Noroeste 0 -- -- 38
2019-03-22 22:00:00 13.2 5 Noroeste 13 Norte 0 -- -- 39
2019-03-22 21:00:00 13.4 4 Noroeste 13 Noroeste 0 -- -- 41
2019-03-22 20:00:00 13.7 4 Noroeste 8 Noroeste 0 -- -- 41
2019-03-22 19:00:00 14.4 0 Calma 6 Sudoeste 0 -- -- 44
2019-03-22 18:00:00 17.3 3 Sur 17 Sur 0 -- -- 34
2019-03-22 17:00:00 18.8 4 Este 17 Este 0 -- -- 35
2019-03-22 16:00:00 19 5 Este 19 Este 0 -- -- 36
2019-03-22 15:00:00 18.4 4 Este 14 Este 0 -- -- 36
2019-03-22 14:00:00 17.7 5 Este 15 Este 0 -- -- 41
2019-03-22 13:00:00 16.5 3 Sudeste 18 Este 0 -- -- 36
2019-03-22 12:00:00 15.9 5 Este 16 Este 0 -- -- 42
2019-03-22 11:00:00 13.8 3 Sudeste 10 Este 0 -- -- 41
2019-03-22 10:00:00 10.2 5 Sur 10 Sur 0 -- -- 49
2019-03-22 09:00:00 7.8 2 Sudoeste 9 Oeste 0 -- -- 53
2019-03-22 08:00:00 4.3 2 Oeste 15 Sudoeste 0 -- -- 64
2019-03-22 07:00:00 3.5 2 Oeste 7 Oeste 0 -- -- 68
2019-03-22 06:00:00 4.4 2 Sudoeste 5 Sudoeste 0 -- -- 64
2019-03-22 05:00:00 6.5 2 Oeste 8 Norte 0 -- -- 51
2019-03-22 04:00:00 7.8 6 Noroeste 11 Noroeste 0 -- -- 47
2019-03-22 03:00:00 5.9 9 Noroeste 12 Noroeste 0 -- -- 57
2019-03-22 02:00:00 9.5 3 Sur 11 Noroeste 0 -- -- 44
2019-03-22 01:00:00 10.4 5 Noroeste 11 Noroeste 0 -- -- 38
2019-03-22 00:00:00 10.3 5 Norte 13 Noroeste 0 -- -- 37
2019-03-21 23:00:00 10.9 4 Norte 12 Norte 0 -- -- 35
2019-03-21 22:00:00 10.8 4 Norte 9 Noroeste 0 -- -- 35
2019-03-21 21:00:00 11.8 3 Noroeste 8 Noroeste 0 -- -- 36
2019-03-21 20:00:00 11.9 0 Calma 4 Noroeste 0 -- -- 42
2019-03-21 19:00:00 14.3 0 Calma 8 Sur 0 -- -- 42
2019-03-21 18:00:00 16 3 Sur 13 Sur 0 -- -- 35
2019-03-21 17:00:00 17.6 3 Sur 16 Este 0 -- -- 33
2019-03-21 16:00:00 17.1 4 Este 18 Este 0 -- -- 33
2019-03-21 15:00:00 17 4 Sudeste 17 Sur 0 -- -- 34
2019-03-21 14:00:00 16.3 5 Sudeste 19 Sur 0 -- -- 37
2019-03-21 13:00:00 15.8 4 Sudeste 18 Este 0 -- -- 40
2019-03-21 12:00:00 14.5 5 Este 15 Este 0 -- -- 40
2019-03-21 11:00:00 13.3 6 Este 13 Nordeste 0 -- -- 43
2019-03-21 10:00:00 11.4 4 Este 14 Este 0 -- -- 48
2019-03-21 09:00:00 7.9 3 Este 8 Este 0 -- -- 58
2019-03-21 08:00:00 5.4 2 Noroeste 7 Oeste 0 -- -- 62
2019-03-21 07:00:00 4.2 3 Sudoeste 9 Sudoeste 0 -- -- 66
2019-03-21 06:00:00 4.3 3 Sudoeste 7 Sudoeste 0 -- -- 65
2019-03-21 05:00:00 5.7 5 Sudoeste 9 Sur 0 -- -- 59
2019-03-21 04:00:00 6.4 8 Oeste 13 Noroeste 0 -- -- 57
2019-03-21 03:00:00 7.9 0 Calma 12 Oeste 0 -- -- 48
2019-03-21 02:00:00 8.4 0 Calma 9 Noroeste 0 -- -- 50
2019-03-21 01:00:00 10.2 4 Noroeste 10 Noroeste 0 -- -- 41
2019-03-21 00:00:00 10.4 4 Norte 8 Noroeste 0 -- -- 42
2019-03-20 23:00:00 10.3 5 Noroeste 10 Noroeste 0 -- -- 43
2019-03-20 22:00:00 10.5 5 Noroeste 9 Noroeste 0 -- -- 44
2019-03-20 21:00:00 10.6 3 Noroeste 7 Noroeste 0 -- -- 45
2019-03-20 20:00:00 11 4 Noroeste 7 Oeste 0 -- -- 45
2019-03-20 19:00:00 12.2 0 Calma 8 Sudeste 0 -- -- 46
2019-03-20 18:00:00 15.1 4 Sur 14 Sur 0 -- -- 36
2019-03-20 17:00:00 17.1 5 Sudeste 16 Sudeste 0 -- -- 35
2019-03-20 16:00:00 17 4 Este 15 Este 0 -- -- 37
2019-03-20 15:00:00 17 4 Este 15 Este 0 -- -- 36
2019-03-20 14:00:00 16 4 Sudeste 22 Sur 0 -- -- 35
2019-03-20 13:00:00 15.6 4 Sudeste 19 Este 0 -- -- 39
2019-03-20 12:00:00 13.7 5 Este 21 Este 0 -- -- 43
2019-03-20 11:00:00 12.9 5 Este 18 Este 0 -- -- 49
2019-03-20 10:00:00 9.4 6 Sur 12 Sudoeste 0 -- -- 55
2019-03-20 09:00:00 6.8 2 Oeste 9 Sudoeste 0 -- -- 63
2019-03-20 08:00:00 4.4 3 Sudoeste 10 Sudoeste 0 -- -- 71
2019-03-20 07:00:00 4 5 Sudoeste 10 Sudoeste 0 -- -- 70
2019-03-20 06:00:00 4.8 2 Sudoeste 8 Noroeste 0 -- -- 65
2019-03-20 05:00:00 4.8 2 Sudoeste 10 Sudoeste 0 -- -- 65
2019-03-20 04:00:00 6.8 4 Oeste 11 Sudoeste 0 -- -- 55
2019-03-20 03:00:00 7.5 4 Oeste 14 Sudoeste 0 -- -- 55
2019-03-20 02:00:00 8.5 3 Oeste 20 Sudoeste 0 -- -- 53
2019-03-20 01:00:00 11.2 8 Sudoeste 24 Norte 0 -- -- 43
2019-03-20 00:00:00 12.8 8 Norte 24 Norte 0 -- -- 32
2019-03-19 23:00:00 13 6 Norte 25 Nordeste 0 -- -- 30
2019-03-19 22:00:00 13.3 14 Norte 40 Norte 0 -- -- 35
2019-03-19 21:00:00 13.7 18 Norte 36 Norte 0 -- -- 37
2019-03-19 20:00:00 14.2 14 Norte 38 Nordeste 0 -- -- 36
2019-03-19 19:00:00 14.8 12 Norte 37 Norte 0 -- -- 36
2019-03-19 18:00:00 16.3 12 Norte 30 Norte 0 -- -- 34
2019-03-19 17:00:00 18.6 6 Sur 22 Sudoeste 0 -- -- 33
2019-03-19 16:00:00 18.4 10 Sudoeste 23 Sudoeste 0 -- -- 33
2019-03-19 15:00:00 18.9 5 Sudeste 17 Sur 0 -- -- 35
2019-03-19 14:00:00 17.5 8 Sur 21 Sur 0 -- -- 38
2019-03-19 13:00:00 16.9 6 Sudeste 17 Sudeste 0 -- -- 41
2019-03-19 12:00:00 14.3 3 Sudeste 12 Este 0 -- -- 44
2019-03-19 11:00:00 12.1 6 Sudoeste 15 Sur 0 -- -- 47
2019-03-19 10:00:00 10.1 6 Sur 15 Sudoeste 0 -- -- 51
2019-03-19 09:00:00 7.6 5 Sudoeste 13 Sudoeste 0 -- -- 57
2019-03-19 08:00:00 5.8 3 Oeste 12 Sur 0 -- -- 65
2019-03-19 07:00:00 5.4 2 Sudoeste 7 Sudoeste 0 -- -- 61
2019-03-19 06:00:00 6.3 2 Norte 5 Noroeste 0 -- -- 61
2019-03-19 05:00:00 6 0 Calma 6 Sudoeste 0 -- -- 57
2019-03-19 04:00:00 6.8 2 Sudoeste 6 Noroeste 0 -- -- 56
2019-03-19 03:00:00 7.8 5 Noroeste 12 Oeste 0 -- -- 52
2019-03-19 02:00:00 8.1 3 Sudoeste 13 Sudoeste 0 -- -- 56
2019-03-19 01:00:00 10 4 Noroeste 12 Norte 0 -- -- 46
2019-03-19 00:00:00 9.3 2 Sudoeste 6 Noroeste 0 -- -- 50